Time;durP1;ratioP1;P1;durP2;ratioP2;P2;SDS_P1;SDS_P2;PMS_P1;PMS_P2;Temp;Humidity;BMP_temperature;BMP_pressure;BME280_temperature;BME280_humidity;BME280_pressure;Samples;Min_cycle;Max_cycle;Signal;HPM_P1;HPM_P2
2023/02/21 02:14:57;;;;;;;13.43;9.65;;;;;;;6.83;77.89;98576.91;5052199;28;20025;-77
2023/02/21 02:17:36;;;;;;;15.00;10.88;;;;;;;6.85;77.31;98564.13;5046880;28;20037;-77
2023/02/21 02:20:21;;;;;;;12.40;10.27;;;;;;;6.82;77.12;98572.56;5065358;28;20040;-77
2023/02/21 02:23:07;;;;;;;13.13;10.88;;;;;;;6.85;77.81;98569.47;5064513;28;20064;-77
2023/02/21 02:25:51;;;;;;;11.38;10.25;;;;;;;6.89;77.43;98569.84;5051923;28;20472;-77
2023/02/21 02:28:39;;;;;;;14.02;9.75;;;;;;;6.88;76.48;98568.22;5065188;28;20033;-77
2023/02/21 02:31:17;;;;;;;12.43;11.20;;;;;;;6.80;78.08;98565.78;5049196;28;20040;-77
2023/02/21 02:34:05;;;;;;;14.20;12.90;;;;;;;6.54;79.71;98555.97;5071476;28;20060;-77
2023/02/21 02:36:38;;;;;;;14.88;13.30;;;;;;;6.60;79.24;98563.19;5054689;28;20040;-77
2023/02/21 02:39:10;;;;;;;14.90;13.70;;;;;;;6.62;78.92;98570.97;5042610;28;20063;-75
2023/02/21 02:41:52;;;;;;;17.02;15.13;;;;;;;6.77;77.98;98577.72;5048655;28;20036;-75
2023/02/21 02:44:28;;;;;;;15.35;13.95;;;;;;;6.64;78.92;98569.75;5066429;28;20089;-77
2023/02/21 02:46:55;;;;;;;14.38;12.80;;;;;;;6.78;77.58;98579.38;5071517;28;20036;-76
2023/02/21 02:49:26;;;;;;;12.63;11.45;;;;;;;6.85;76.98;98574.81;5034717;28;20021;-77
2023/02/21 02:51:52;;;;;;;17.10;12.40;;;;;;;6.85;77.95;98569.47;5051377;28;20037;-74
2023/02/21 02:54:20;;;;;;;12.82;11.52;;;;;;;6.78;77.50;98578.53;5048177;28;20017;-76
2023/02/21 02:56:46;;;;;;;12.13;10.55;;;;;;;6.89;77.85;98576.03;5042536;28;20454;-76
2023/02/21 02:59:25;;;;;;;11.38;10.23;;;;;;;6.86;77.58;98581.00;5035935;28;20024;-76
2023/02/21 03:02:24;;;;;;;11.88;10.73;;;;;;;6.73;77.71;98592.56;5042235;28;20120;-76
2023/02/21 03:05:05;;;;;;;16.15;11.40;;;;;;;6.82;76.74;98593.97;5067506;28;20040;-76
2023/02/21 03:07:57;;;;;;;15.55;11.63;;;;;;;6.85;77.33;98584.69;5059363;28;20047;-73
2023/02/21 03:10:44;;;;;;;14.20;11.18;;;;;;;6.81;78.30;98595.00;5071021;28;20040;-76
2023/02/21 03:13:20;;;;;;;12.75;11.48;;;;;;;6.74;77.93;98591.53;5037401;28;20028;-75
2023/02/21 03:16:15;;;;;;;12.20;11.13;;;;;;;6.93;77.30;98587.97;5037537;28;20696;-76
2023/02/21 03:18:45;;;;;;;11.75;10.20;;;;;;;7.04;76.96;98588.34;5040761;28;20037;-76
2023/02/21 03:21:15;;;;;;;13.25;10.43;;;;;;;6.97;76.45;98589.19;5041213;28;20435;-76
2023/02/21 03:23:42;;;;;;;11.88;10.02;;;;;;;7.05;76.52;98590.00;5040931;28;20032;-76
2023/02/21 03:26:09;;;;;;;11.90;9.70;;;;;;;7.09;75.83;98591.22;5070603;28;20103;-77
2023/02/21 03:28:38;;;;;;;13.00;10.07;;;;;;;6.79;76.65;98581.00;5034594;28;20036;-77
2023/02/21 03:31:06;;;;;;;11.82;10.20;;;;;;;6.70;77.69;98598.31;5032193;28;20021;-75
2023/02/21 03:33:32;;;;;;;13.43;12.07;;;;;;;6.43;78.91;98586.03;5045615;28;20033;-76
2023/02/21 03:35:59;;;;;;;16.20;14.40;;;;;;;6.33;80.59;98595.50;5046183;28;20029;-76
2023/02/21 03:38:29;;;;;;;17.40;15.75;;;;;;;6.32;80.91;98594.72;5033758;28;20136;-76
2023/02/21 03:40:54;;;;;;;17.50;15.70;;;;;;;6.32;80.45;98578.66;5035611;28;20036;-75
2023/02/21 03:43:21;;;;;;;18.55;16.95;;;;;;;6.51;79.39;98576.97;5053532;28;20059;-76
2023/02/21 03:45:51;;;;;;;16.83;15.18;;;;;;;6.63;79.08;98585.97;5038041;28;20043;-75
2023/02/21 03:48:17;;;;;;;15.90;13.77;;;;;;;6.72;77.55;98584.75;5037384;28;20119;-75
2023/02/21 03:50:43;;;;;;;15.18;13.82;;;;;;;6.79;77.83;98569.50;5052829;28;20163;-74
2023/02/21 03:53:09;;;;;;;14.18;12.63;;;;;;;6.77;77.59;98575.03;5053520;28;20564;-75
2023/02/21 03:55:36;;;;;;;13.30;12.00;;;;;;;6.77;77.93;98572.38;5056454;28;20118;-75
2023/02/21 03:58:07;;;;;;;12.23;10.25;;;;;;;6.62;77.44;98577.16;5060225;28;20060;-75
2023/02/21 04:00:35;;;;;;;11.27;10.18;;;;;;;6.70;77.34;98579.59;5047223;28;20089;-75
2023/02/21 04:03:01;;;;;;;12.30;10.98;;;;;;;6.73;77.08;98576.50;5040028;28;20025;-75
2023/02/21 04:05:49;;;;;;;17.05;10.55;;;;;;;6.68;77.14;98568.28;5042131;28;20039;-75
2023/02/21 04:08:15;;;;;;;13.27;11.88;;;;;;;6.69;77.59;98569.94;5064675;28;20040;-76
2023/02/21 04:10:41;;;;;;;12.77;11.48;;;;;;;6.78;77.16;98567.84;5033447;28;20017;-74
2023/02/21 04:13:08;;;;;;;12.98;10.57;;;;;;;6.72;77.30;98574.84;5050041;28;20055;-74
2023/02/21 04:15:38;;;;;;;14.93;12.45;;;;;;;6.83;77.33;98570.72;5034825;28;20029;-73
2023/02/21 04:18:04;;;;;;;12.82;11.52;;;;;;;6.65;77.34;98566.00;5034211;28;20068;-73
2023/02/21 04:20:30;;;;;;;14.10;10.32;;;;;;;6.62;77.33;98561.09;5053206;28;20035;-73
2023/02/21 04:22:57;;;;;;;14.75;13.55;;;;;;;6.40;79.02;98559.69;5050767;28;20029;-73
2023/02/21 04:25:23;;;;;;;16.30;14.50;;;;;;;6.44;79.14;98555.56;5069493;28;20020;-74
2023/02/21 04:27:52;;;;;;;13.80;12.45;;;;;;;6.65;77.78;98557.19;5069614;28;20032;-75
2023/02/21 04:30:17;;;;;;;15.35;13.57;;;;;;;6.42;79.18;98557.63;5053099;28;20028;-75
2023/02/21 04:32:43;;;;;;;14.23;13.13;;;;;;;6.57;77.72;98544.84;5053320;28;20037;-75
2023/02/21 04:35:12;;;;;;;16.25;12.73;;;;;;;6.57;78.01;98550.19;5044502;28;20032;-73
2023/02/21 04:37:38;;;;;;;14.02;12.55;;;;;;;6.70;77.82;98544.81;5034987;28;20029;-73
2023/02/21 04:40:03;;;;;;;13.38;11.88;;;;;;;6.71;77.65;98546.47;5044328;28;20017;-74
2023/02/21 04:42:32;;;;;;;13.45;11.45;;;;;;;6.78;77.21;98546.44;5049074;28;20032;-74
2023/02/21 04:44:57;;;;;;;12.73;10.57;;;;;;;6.73;77.26;98548.91;5035967;28;20032;-75
2023/02/21 04:47:23;;;;;;;14.45;12.25;;;;;;;6.61;77.64;98532.69;5069620;28;20028;-75
2023/02/21 04:49:50;;;;;;;16.75;12.15;;;;;;;6.71;77.74;98529.56;5049554;28;20492;-74
2023/02/21 04:52:19;;;;;;;13.68;10.88;;;;;;;6.73;77.02;98532.84;5031936;28;20047;-75
2023/02/21 04:54:45;;;;;;;13.65;10.65;;;;;;;6.74;77.85;98532.66;5070585;28;20103;-74
2023/02/21 04:57:11;;;;;;;13.60;12.07;;;;;;;6.52;78.16;98519.75;5069586;28;20483;-74
2023/02/21 04:59:36;;;;;;;14.40;11.60;;;;;;;6.61;77.80;98519.31;5049535;28;20054;-75
2023/02/21 05:02:02;;;;;;;13.65;12.27;;;;;;;6.60;77.94;98527.56;5047493;28;20044;-74
2023/02/21 05:04:27;;;;;;;16.65;12.40;;;;;;;6.56;77.88;98521.78;5069123;28;20082;-76
2023/02/21 05:06:52;;;;;;;15.50;12.55;;;;;;;6.39;78.96;98530.50;5055922;28;20041;-72
2023/02/21 05:09:18;;;;;;;15.32;13.95;;;;;;;6.50;78.32;98528.00;5070739;28;20031;-76
2023/02/21 05:11:43;;;;;;;15.43;13.25;;;;;;;6.54;77.94;98518.50;5069465;28;20040;-76
2023/02/21 05:14:09;;;;;;;15.02;13.45;;;;;;;6.50;78.63;98519.16;5069131;28;20066;-76
2023/02/21 05:16:35;;;;;;;17.27;13.20;;;;;;;6.54;78.11;98523.88;5055894;28;20124;-73
2023/02/21 05:19:01;;;;;;;13.65;12.20;;;;;;;6.56;78.21;98521.78;5060795;28;20120;-73
2023/02/21 05:21:26;;;;;;;15.65;14.00;;;;;;;6.52;77.90;98517.91;5066009;28;20033;-76
2023/02/21 05:23:55;;;;;;;15.93;12.88;;;;;;;6.49;77.72;98522.88;5069088;28;20623;-74
2023/02/21 05:26:23;;;;;;;14.27;12.35;;;;;;;6.57;77.56;98523.44;5036259;28;20064;-75
2023/02/21 05:28:49;;;;;;;23.58;18.25;;;;;;;6.56;78.61;98524.47;5026931;28;20033;-75
2023/02/21 05:31:14;;;;;;;23.27;17.38;;;;;;;6.37;78.82;98517.31;5048310;28;20409;-76
2023/02/21 05:33:39;;;;;;;17.35;15.30;;;;;;;6.40;78.51;98506.19;5069039;28;20418;-75
2023/02/21 05:36:05;;;;;;;26.75;21.13;;;;;;;6.33;78.24;98517.94;5055569;28;20033;-75
2023/02/21 05:38:31;;;;;;;16.42;14.82;;;;;;;6.37;77.97;98511.97;5055589;28;20434;-75
2023/02/21 05:40:56;;;;;;;16.85;14.85;;;;;;;6.26;78.22;98504.59;5054684;28;20194;-75
2023/02/21 05:43:21;;;;;;;17.13;15.15;;;;;;;6.20;78.53;98518.81;5073637;28;20028;-75
2023/02/21 05:45:47;;;;;;;16.60;14.88;;;;;;;6.30;78.62;98521.88;5072610;28;20399;-74
2023/02/21 05:48:12;;;;;;;17.38;15.63;;;;;;;6.23;78.45;98515.72;5052779;28;20036;-76
2023/02/21 05:50:38;;;;;;;15.80;14.20;;;;;;;6.09;79.32;98514.09;5068027;28;20520;-75
2023/02/21 05:53:04;;;;;;;20.17;15.38;;;;;;;6.12;78.62;98519.00;5073941;28;20104;-75
2023/02/21 05:55:29;;;;;;;18.20;16.33;;;;;;;6.09;79.54;98519.47;5073010;28;20332;-74
2023/02/21 05:57:54;;;;;;;19.40;17.42;;;;;;;5.99;79.47;98524.38;5055714;28;20035;-75
2023/02/21 06:00:24;;;;;;;21.20;19.30;;;;;;;5.89;80.32;98518.63;5042101;28;20159;-75
2023/02/21 06:02:51;;;;;;;18.45;16.75;;;;;;;5.94;79.80;98527.69;5063378;28;20391;-76
2023/02/21 06:05:16;;;;;;;21.63;19.42;;;;;;;5.99;79.91;98525.22;5033486;28;20040;-73
2023/02/21 06:07:42;;;;;;;20.95;18.67;;;;;;;5.95;79.16;98512.47;5072332;28;20043;-74
2023/02/21 06:10:08;;;;;;;22.83;20.65;;;;;;;5.82;80.50;98520.44;5058720;28;20400;-74
2023/02/21 06:12:33;;;;;;;20.55;18.70;;;;;;;5.83;79.71;98530.13;5055465;28;20038;-74
2023/02/21 06:14:58;;;;;;;21.58;19.38;;;;;;;5.97;79.25;98521.94;5071839;28;20048;-74
2023/02/21 06:17:24;;;;;;;21.52;17.67;;;;;;;5.93;79.55;98530.53;5073352;28;20488;-75
2023/02/21 06:19:49;;;;;;;21.77;19.77;;;;;;;5.86;80.00;98532.44;5058817;28;20116;-74
2023/02/21 06:22:15;;;;;;;22.02;19.67;;;;;;;5.64;80.92;98530.94;5063737;28;20059;-74
2023/02/21 06:24:41;;;;;;;23.50;19.98;;;;;;;5.74;80.79;98536.72;5067034;28;20127;-74
2023/02/21 06:27:06;;;;;;;23.33;21.00;;;;;;;5.65;80.62;98528.06;5072223;28;20082;-74
2023/02/21 06:29:31;;;;;;;24.65;22.05;;;;;;;5.67;80.43;98530.53;5058678;28;20071;-75
2023/02/21 06:31:58;;;;;;;24.08;21.83;;;;;;;5.75;80.17;98533.00;5063837;28;20510;-74
2023/02/21 06:34:24;;;;;;;23.73;21.25;;;;;;;5.94;79.37;98542.91;5048401;28;20500;-75
2023/02/21 06:36:54;;;;;;;26.77;23.73;;;;;;;5.64;80.25;98541.63;5051968;28;20021;-74
2023/02/21 06:39:20;;;;;;;26.90;24.60;;;;;;;5.65;81.20;98543.28;5050098;28;20033;-74
2023/02/21 06:41:45;;;;;;;28.05;25.55;;;;;;;5.71;80.28;98551.28;5066194;28;20017;-74
2023/02/21 06:44:10;;;;;;;56.78;47.45;;;;;;;5.64;81.09;98549.63;5047579;28;20029;-74
2023/02/21 06:46:36;;;;;;;73.95;56.35;;;;;;;5.40;81.11;98549.19;5070344;28;20107;-75
2023/02/21 06:49:03;;;;;;;103.03;69.43;;;;;;;5.56;81.14;98556.00;5054412;28;20119;-75
2023/02/21 06:51:33;;;;;;;50.70;41.10;;;;;;;5.69;80.25;98556.03;5061867;28;20036;-74
2023/02/21 06:53:59;;;;;;;37.58;33.60;;;;;;;5.36;81.51;98553.31;5067231;28;20036;-74
2023/02/21 06:56:25;;;;;;;33.85;30.48;;;;;;;5.35;81.77;98553.50;5072783;28;20086;-74
2023/02/21 06:58:51;;;;;;;27.88;25.27;;;;;;;5.74;80.22;98550.06;5054978;28;20412;-74
2023/02/21 07:01:17;;;;;;;30.13;27.42;;;;;;;5.66;81.23;98550.25;5061632;28;20017;-75
2023/02/21 07:03:43;;;;;;;26.58;24.08;;;;;;;5.62;81.02;98543.69;5053672;28;20045;-74
2023/02/21 07:06:08;;;;;;;27.83;25.20;;;;;;;5.88;80.51;98555.22;5071045;28;20054;-75
2023/02/21 07:08:34;;;;;;;24.83;22.52;;;;;;;5.82;81.07;98555.19;5057571;28;20036;-75
2023/02/21 07:10:59;;;;;;;26.27;23.77;;;;;;;5.94;80.54;98558.94;5037704;28;20025;-74
2023/02/21 07:13:24;;;;;;;25.48;23.20;;;;;;;5.96;80.70;98563.03;5072185;28;20027;-74
2023/02/21 07:15:50;;;;;;;27.90;25.17;;;;;;;5.89;80.42;98564.06;5070976;28;20674;-74
2023/02/21 07:18:15;;;;;;;25.35;23.05;;;;;;;6.03;80.23;98563.03;5040923;28;20033;-75
2023/02/21 07:20:40;;;;;;;27.10;23.00;;;;;;;6.07;79.54;98561.59;5061841;28;20384;-74
2023/02/21 07:23:06;;;;;;;24.05;21.52;;;;;;;6.09;80.61;98572.94;5066320;28;20047;-75
2023/02/21 07:25:31;;;;;;;23.48;21.33;;;;;;;6.14;79.09;98560.56;5071787;28;20383;-75
2023/02/21 07:27:56;;;;;;;24.55;22.17;;;;;;;6.09;80.68;98567.56;5057116;28;20127;-74
2023/02/21 07:30:22;;;;;;;24.33;21.95;;;;;;;6.25;78.84;98567.16;5062016;28;20154;-74
2023/02/21 07:32:47;;;;;;;24.95;22.67;;;;;;;6.10;80.27;98574.56;5049517;28;20029;-75
2023/02/21 07:35:13;;;;;;;25.73;23.05;;;;;;;6.28;79.79;98566.72;5050405;28;20082;-74
2023/02/21 07:37:38;;;;;;;31.33;28.73;;;;;;;6.14;80.91;98576.59;5032615;28;20028;-74
2023/02/21 07:40:05;;;;;;;29.60;26.77;;;;;;;6.34;80.01;98581.94;5061591;28;20090;-75
2023/02/21 07:42:31;;;;;;;27.00;24.42;;;;;;;6.54;78.43;98577.38;5049654;28;20036;-75
2023/02/21 07:44:57;;;;;;;25.77;23.23;;;;;;;6.55;79.16;98584.38;5070068;28;20032;-74
2023/02/21 07:47:23;;;;;;;22.15;19.95;;;;;;;6.75;78.33;98589.66;5037038;28;20480;-74
2023/02/21 07:49:49;;;;;;;21.73;19.63;;;;;;;6.67;79.19;98596.09;5044650;28;20469;-74
2023/02/21 07:52:15;;;;;;;21.10;18.92;;;;;;;6.86;77.93;98587.16;5066073;28;20086;-75
2023/02/21 07:54:40;;;;;;;21.25;19.05;;;;;;;6.85;78.80;98596.25;5070129;28;20122;-75
2023/02/21 07:57:06;;;;;;;21.42;19.08;;;;;;;6.93;77.92;98609.38;5040363;28;20044;-75
2023/02/21 07:59:31;;;;;;;21.90;18.00;;;;;;;6.90;78.80;98604.47;5071075;28;20020;-74
2023/02/21 08:01:57;;;;;;;22.60;16.98;;;;;;;7.00;77.62;98613.91;5056623;28;20037;-75
2023/02/21 08:04:22;;;;;;;18.63;16.35;;;;;;;7.15;77.63;98606.41;5061121;28;20079;-75
2023/02/21 08:06:48;;;;;;;18.20;15.77;;;;;;;7.12;77.09;98612.22;5049059;28;20036;-75
2023/02/21 08:09:14;;;;;;;20.25;15.68;;;;;;;6.97;77.10;98618.66;5070076;28;20034;-74
2023/02/21 08:11:39;;;;;;;25.05;18.25;;;;;;;7.11;76.94;98618.59;5040042;28;20032;-75
2023/02/21 08:14:05;;;;;;;21.27;16.67;;;;;;;7.19;77.83;98623.72;5044671;28;20362;-75
2023/02/21 08:16:30;;;;;;;20.67;16.73;;;;;;;7.19;77.31;98623.72;5065146;28;20078;-75
2023/02/21 08:18:55;;;;;;;20.20;16.88;;;;;;;7.31;76.64;98625.50;5070056;28;20032;-75
2023/02/21 08:21:21;;;;;;;22.65;16.20;;;;;;;7.15;77.83;98622.47;5069979;28;20036;-74
2023/02/21 08:23:46;;;;;;;18.27;15.57;;;;;;;7.29;76.79;98621.41;5045355;28;20104;-76
2023/02/21 08:26:11;;;;;;;20.13;15.48;;;;;;;7.37;76.62;98626.53;5063810;28;20037;-74
2023/02/21 08:28:37;;;;;;;19.60;15.93;;;;;;;7.29;76.07;98619.53;5050282;28;20035;-74
2023/02/21 08:31:02;;;;;;;20.25;15.88;;;;;;;7.36;76.23;98611.47;5050426;28;20091;-74
2023/02/21 08:33:28;;;;;;;23.23;16.13;;;;;;;7.37;76.83;98622.00;5062487;28;20576;-75
2023/02/21 08:35:53;;;;;;;18.15;15.73;;;;;;;7.28;76.44;98617.09;5063295;28;20071;-73
2023/02/21 08:38:19;;;;;;;19.77;15.52;;;;;;;7.54;76.28;98616.94;5062775;28;20468;-75
2023/02/21 08:40:45;;;;;;;21.73;15.45;;;;;;;7.53;76.21;98620.66;5047147;28;20043;-74
2023/02/21 08:43:10;;;;;;;17.70;14.23;;;;;;;7.65;75.29;98629.69;5049294;28;20495;-73
2023/02/21 08:45:36;;;;;;;19.23;15.30;;;;;;;7.77;75.33;98627.13;5039622;28;20124;-73
2023/02/21 08:48:02;;;;;;;17.75;14.52;;;;;;;7.60;76.50;98618.78;5053079;28;20138;-73
2023/02/21 08:50:28;;;;;;;16.88;14.02;;;;;;;7.84;75.18;98627.91;5070062;28;20468;-73
2023/02/21 08:52:54;;;;;;;19.23;14.63;;;;;;;7.68;76.62;98633.78;5032964;28;20120;-74
2023/02/21 08:55:20;;;;;;;19.25;15.32;;;;;;;7.74;75.85;98633.75;5029729;28;20025;-74
2023/02/21 08:57:50;;;;;;;22.23;16.05;;;;;;;7.83;75.66;98637.81;5071043;28;20365;-74
2023/02/21 09:00:17;;;;;;;19.33;14.57;;;;;;;7.84;75.79;98630.59;5052922;28;20036;-74
2023/02/21 09:02:42;;;;;;;19.02;13.93;;;;;;;7.80;74.68;98627.50;5069635;28;20020;-74
2023/02/21 09:05:19;;;;;;;25.45;16.42;;;;;;;7.99;74.86;98634.59;5055765;28;20044;-74
2023/02/21 09:07:48;;;;;;;18.35;13.95;;;;;;;8.07;75.19;98631.69;5043890;28;20041;-74
2023/02/21 09:10:14;;;;;;;17.75;13.93;;;;;;;8.29;74.16;98630.28;5048638;28;20077;-74
2023/02/21 09:12:39;;;;;;;17.15;13.30;;;;;;;8.27;75.11;98629.69;5051232;28;20128;-74
2023/02/21 09:15:06;;;;;;;20.65;13.88;;;;;;;8.21;74.43;98630.50;5055907;28;20023;-74
2023/02/21 09:17:34;;;;;;;17.08;12.77;;;;;;;8.25;73.43;98631.72;5063543;28;20094;-74
2023/02/21 09:20:05;;;;;;;16.25;11.57;;;;;;;8.35;74.19;98631.28;5036861;28;20028;-74
2023/02/21 09:22:31;;;;;;;17.13;12.48;;;;;;;8.43;73.73;98632.84;5045858;28;20040;-74
2023/02/21 09:24:57;;;;;;;15.40;11.63;;;;;;;8.57;74.06;98623.63;5070869;28;20050;-74
2023/02/21 09:27:35;;;;;;;15.95;11.73;;;;;;;8.58;73.14;98619.91;5053271;28;20362;-74
2023/02/21 09:30:13;;;;;;;18.38;12.38;;;;;;;8.44;73.79;98629.13;5058207;28;20032;-74
2023/02/21 09:32:39;;;;;;;18.17;12.35;;;;;;;8.72;73.41;98634.84;5042551;28;20407;-74
2023/02/21 09:35:05;;;;;;;18.17;11.35;;;;;;;8.79;72.81;98633.75;5052693;28;20495;-74
2023/02/21 09:37:31;;;;;;;18.80;12.40;;;;;;;8.78;73.13;98631.25;5053407;28;20087;-74
2023/02/21 09:39:56;;;;;;;16.77;12.48;;;;;;;8.72;72.49;98622.25;5066184;28;20404;-74
2023/02/21 09:42:28;;;;;;;21.52;12.43;;;;;;;8.85;72.12;98615.91;5066557;28;20036;-74
2023/02/21 09:44:53;;;;;;;19.83;11.60;;;;;;;8.80;72.72;98618.44;5072591;28;20446;-74
2023/02/21 09:47:27;;;;;;;16.60;11.70;;;;;;;9.24;71.53;98612.75;5055969;28;20020;-74
2023/02/21 09:49:58;;;;;;;17.35;11.38;;;;;;;9.14;71.05;98620.56;5047568;28;20029;-75
2023/02/21 09:52:33;;;;;;;23.75;13.70;;;;;;;9.34;71.38;98613.06;5068717;28;20506;-74
2023/02/21 09:55:01;;;;;;;20.42;12.68;;;;;;;9.40;70.69;98609.47;5072387;28;20037;-74
2023/02/21 09:57:26;;;;;;;19.65;10.88;;;;;;;9.32;71.54;98601.72;5039131;28;20032;-74
2023/02/21 09:59:52;;;;;;;17.17;11.77;;;;;;;9.20;71.00;98600.00;5052448;28;20096;-74
2023/02/21 10:02:31;;;;;;;13.95;10.80;;;;;;;9.15;71.96;98589.94;5036583;28;20024;-74
2023/02/21 10:05:29;;;;;;;16.95;11.70;;;;;;;9.41;71.86;98594.97;5059738;28;20083;-74
2023/02/21 10:08:08;;;;;;;19.38;10.95;;;;;;;9.65;70.85;98602.09;5045508;28;20040;-74
2023/02/21 10:10:42;;;;;;;18.48;10.95;;;;;;;9.47;70.18;98588.72;5038842;28;20122;-74
2023/02/21 10:13:46;;;;;;;16.58;11.15;;;;;;;9.75;70.10;98588.09;5055336;28;20036;-74
2023/02/21 10:16:16;;;;;;;18.00;11.35;;;;;;;9.64;69.81;98594.25;5064173;28;20068;-74
2023/02/21 10:18:58;;;;;;;17.40;10.73;;;;;;;9.52;71.09;98596.88;5035505;28;20124;-74
2023/02/21 10:21:28;;;;;;;16.77;11.00;;;;;;;9.77;69.76;98593.25;5055250;28;20181;-74
2023/02/21 10:23:56;;;;;;;18.17;10.68;;;;;;;9.89;69.99;98591.41;5046102;28;20114;-74
2023/02/21 10:26:29;;;;;;;15.05;10.15;;;;;;;10.01;69.24;98597.66;5051387;28;20071;-74
2023/02/21 10:28:54;;;;;;;15.70;10.40;;;;;;;9.95;70.14;98585.09;5061988;28;20040;-74
2023/02/21 10:31:30;;;;;;;13.95;9.98;;;;;;;10.07;69.63;98591.31;5068616;28;20024;-74
2023/02/21 10:33:55;;;;;;;15.30;9.75;;;;;;;10.10;69.79;98590.88;5071894;28;20064;-74
2023/02/21 10:36:21;;;;;;;16.55;10.18;;;;;;;10.02;70.20;98585.81;5058084;28;20162;-74
2023/02/21 10:39:03;;;;;;;16.00;9.93;;;;;;;10.35;69.55;98596.91;5055197;28;20045;-74
2023/02/21 10:41:32;;;;;;;15.43;10.23;;;;;;;10.11;70.43;98587.13;5035486;28;20072;-74
2023/02/21 10:44:02;;;;;;;14.88;10.02;;;;;;;9.91;70.75;98595.50;5049168;28;20032;-74
2023/02/21 10:46:38;;;;;;;17.63;10.57;;;;;;;10.07;70.03;98583.25;5055038;28;20032;-75
2023/02/21 10:49:27;;;;;;;18.05;10.48;;;;;;;10.30;69.04;98581.44;5041721;28;20044;-74
2023/02/21 10:52:12;;;;;;;16.25;10.30;;;;;;;10.23;68.85;98578.03;5055502;28;20163;-74
2023/02/21 10:54:38;;;;;;;14.98;8.80;;;;;;;10.13;69.20;98576.97;5051530;28;20543;-73
2023/02/21 10:57:07;;;;;;;18.25;9.88;;;;;;;10.33;68.63;98583.69;5066536;28;20505;-74
2023/02/21 10:59:34;;;;;;;17.48;10.50;;;;;;;10.40;69.12;98572.78;5051404;28;20029;-74
2023/02/21 11:02:02;;;;;;;17.88;11.73;;;;;;;10.35;69.41;98567.28;5048528;28;20043;-74
2023/02/21 11:04:37;;;;;;;16.67;10.30;;;;;;;10.42;69.04;98565.28;5072198;28;20043;-74
2023/02/21 11:07:08;;;;;;;18.63;10.68;;;;;;;10.39;69.12;98565.75;5055375;28;20036;-74
2023/02/21 11:09:42;;;;;;;15.23;10.52;;;;;;;10.33;69.35;98561.31;5043901;28;20028;-74
2023/02/21 11:12:29;;;;;;;17.27;10.30;;;;;;;10.25;69.66;98545.50;5052505;28;20036;-74
2023/02/21 11:15:01;;;;;;;19.92;11.30;;;;;;;10.33;69.69;98553.25;5070616;28;20032;-75
2023/02/21 11:17:27;;;;;;;17.30;11.48;;;;;;;10.26;70.66;98549.84;5061881;28;20049;-74
2023/02/21 11:19:58;;;;;;;21.77;11.45;;;;;;;10.40;69.92;98552.09;5066806;28;20024;-74
2023/02/21 11:22:33;;;;;;;19.88;10.50;;;;;;;10.61;69.22;98534.50;5050726;28;20033;-74
2023/02/21 11:25:17;;;;;;;14.52;9.25;;;;;;;10.44;69.55;98533.56;5036898;28;20504;-74
2023/02/21 11:27:43;;;;;;;14.95;9.68;;;;;;;10.62;70.00;98529.94;5054491;28;20141;-74
2023/02/21 11:30:13;;;;;;;13.73;8.95;;;;;;;10.55;69.35;98523.84;5063902;28;20029;-74
2023/02/21 11:32:40;;;;;;;12.98;9.18;;;;;;;10.78;68.85;98519.22;5045235;28;20039;-74
2023/02/21 11:35:17;;;;;;;14.77;9.30;;;;;;;10.78;69.27;98532.69;5053282;28;20021;-74
2023/02/21 11:38:08;;;;;;;15.27;9.55;;;;;;;10.63;70.38;98534.25;5052585;28;20033;-74
2023/02/21 11:40:44;;;;;;;14.70;9.35;;;;;;;10.78;68.51;98530.00;5058248;28;20041;-74
2023/02/21 11:43:21;;;;;;;12.77;8.02;;;;;;;11.06;68.21;98527.34;5050351;28;20043;-74
2023/02/21 11:46:16;;;;;;;16.17;10.02;;;;;;;11.09;68.77;98524.19;5052156;28;20063;-74
2023/02/21 11:48:50;;;;;;;16.80;9.05;;;;;;;11.31;68.30;98521.66;5053180;28;20045;-74
2023/02/21 11:51:41;;;;;;;14.23;9.02;;;;;;;11.43;67.58;98519.72;5057232;28;20480;-75
2023/02/21 11:54:06;;;;;;;12.93;8.60;;;;;;;11.26;67.94;98518.03;5040242;28;20114;-74
2023/02/21 11:57:06;;;;;;;13.45;9.10;;;;;;;11.28;67.35;98510.50;5043465;28;20431;-74
2023/02/21 12:00:06;;;;;;;13.45;8.50;;;;;;;11.37;67.58;98509.06;5025139;28;20452;-75
2023/02/21 12:02:47;;;;;;;13.30;8.32;;;;;;;11.41;66.96;98494.06;5058012;28;20411;-75
2023/02/21 12:05:22;;;;;;;15.38;8.77;;;;;;;11.77;66.92;98490.94;5069734;28;20048;-74
2023/02/21 12:07:53;;;;;;;11.90;7.50;;;;;;;15.03;57.94;98491.91;5070199;28;20039;-74
2023/02/21 12:10:34;;;;;;;10.35;6.90;;;;;;;16.85;51.05;98487.41;5053087;28;20150;-75
2023/02/21 12:13:02;;;;;;;12.15;7.47;;;;;;;17.47;49.63;98484.91;5069996;28;20056;-75
2023/02/21 12:15:46;;;;;;;11.18;6.60;;;;;;;20.52;42.34;98472.53;5063874;28;20480;-75
2023/02/21 12:18:33;;;;;;;12.25;6.63;;;;;;;20.56;42.31;98470.81;5067059;28;20380;-75
2023/02/21 12:21:20;;;;;;;9.77;5.82;;;;;;;20.10;42.19;98466.41;5036672;28;20036;-75
2023/02/21 12:24:04;;;;;;;10.07;6.65;;;;;;;14.48;55.66;98477.03;5049665;28;20037;-75
2023/02/21 12:26:49;;;;;;;9.25;6.57;;;;;;;13.46;59.50;98481.06;5067704;28;20054;-75
2023/02/21 12:29:21;;;;;;;10.00;6.65;;;;;;;13.14;61.45;98467.47;5050041;28;20033;-75
2023/02/21 12:32:13;;;;;;;10.70;6.72;;;;;;;13.09;62.51;98470.13;5039832;28;20502;-75
2023/02/21 12:34:41;;;;;;;12.40;7.85;;;;;;;12.98;61.60;98465.63;5069394;28;20098;-75
2023/02/21 12:37:28;;;;;;;11.73;7.03;;;;;;;12.69;63.07;98466.91;5049992;28;20039;-75
2023/02/21 12:40:01;;;;;;;8.60;5.80;;;;;;;13.08;62.42;98465.78;5053027;28;20048;-75
2023/02/21 12:42:37;;;;;;;10.68;5.90;;;;;;;12.91;62.74;98448.78;5039445;28;20041;-75
2023/02/21 12:45:25;;;;;;;9.98;6.18;;;;;;;13.04;62.95;98445.72;5053146;28;20051;-75
2023/02/21 12:47:58;;;;;;;11.07;6.40;;;;;;;12.93;62.96;98443.94;5069022;28;20029;-74
2023/02/21 12:50:28;;;;;;;9.38;6.20;;;;;;;12.98;63.06;98441.31;5049480;28;20403;-75
2023/02/21 12:53:03;;;;;;;10.13;6.28;;;;;;;12.76;63.40;98443.22;5051086;28;20139;-75
2023/02/21 12:55:35;;;;;;;9.77;6.75;;;;;;;12.94;62.93;98437.47;5051281;28;20024;-75
2023/02/21 12:58:23;;;;;;;9.18;5.68;;;;;;;12.79;63.62;98434.63;5049076;28;20139;-75
2023/02/21 13:01:16;;;;;;;10.05;5.43;;;;;;;12.72;63.17;98428.59;5067000;28;20082;-75
2023/02/21 13:04:12;;;;;;;9.38;5.72;;;;;;;12.86;64.31;98427.13;5069178;28;20476;-75
2023/02/21 13:06:58;;;;;;;7.00;5.05;;;;;;;12.67;64.01;98421.22;5061101;28;20508;-75
2023/02/21 13:09:29;;;;;;;9.10;6.20;;;;;;;12.99;64.48;98410.50;5062638;28;20079;-74
2023/02/21 13:12:01;;;;;;;10.70;7.13;;;;;;;12.79;64.79;98410.28;5056567;28;20713;-74
2023/02/21 13:14:38;;;;;;;8.13;5.43;;;;;;;12.75;64.07;98414.56;5052911;28;20087;-75
2023/02/21 13:17:03;;;;;;;8.10;5.70;;;;;;;12.80;64.48;98409.22;5049976;28;20087;-74
2023/02/21 13:19:40;;;;;;;7.70;5.45;;;;;;;12.76;64.17;98403.50;5067084;28;20434;-75
2023/02/21 13:26:14;;;;;;;10.20;5.82;;;;;;;12.86;64.10;98405.50;5065158;28;20051;-75
2023/02/21 13:28:41;;;;;;;8.55;5.60;;;;;;;12.70;64.68;98395.56;5036440;28;20028;-75
2023/02/21 13:31:17;;;;;;;8.75;5.38;;;;;;;13.01;63.06;98397.53;5067685;28;20036;-75
2023/02/21 13:33:44;;;;;;;8.75;5.20;;;;;;;13.11;63.74;98387.69;5052867;28;20025;-75
2023/02/21 13:36:26;;;;;;;9.18;5.97;;;;;;;12.90;63.91;98393.13;5051671;28;20115;-75
2023/02/21 13:39:30;;;;;;;8.48;6.05;;;;;;;13.36;62.10;98384.41;5036541;28;20033;-75
2023/02/21 13:42:05;;;;;;;7.82;6.25;;;;;;;13.60;62.02;98374.88;5064472;28;20502;-75
2023/02/21 13:44:33;;;;;;;10.88;6.72;;;;;;;13.92;61.36;98368.56;5051000;28;20087;-75
2023/02/21 13:47:05;;;;;;;9.35;5.90;;;;;;;13.81;61.98;98362.28;5047790;28;20020;-75
2023/02/21 13:50:00;;;;;;;9.95;6.03;;;;;;;13.38;62.79;98382.25;5059140;28;20041;-75
2023/02/21 13:52:32;;;;;;;10.02;5.75;;;;;;;13.34;62.16;98373.03;5009700;28;20048;-75
2023/02/21 13:55:16;;;;;;;8.30;5.70;;;;;;;13.52;61.84;98372.63;5072236;28;20149;-75
2023/02/21 13:57:45;;;;;;;9.10;6.47;;;;;;;13.67;61.05;98359.22;5058301;28;20040;-74
2023/02/21 14:00:20;;;;;;;10.80;6.47;;;;;;;13.74;61.54;98365.22;5055857;28;20021;-75